sensor_id;sensor_type;location;lat;lon;timestamp;P1;durP1;ratioP1;P2;durP2;ratioP2
11346;SDS011;5728;42.722;23.258;2023-03-25T00:01:50;15.00;;;9.70;;
11346;SDS011;5728;42.722;23.258;2023-03-25T00:04:17;14.47;;;10.20;;
11346;SDS011;5728;42.722;23.258;2023-03-25T00:06:43;14.97;;;9.83;;
11346;SDS011;5728;42.722;23.258;2023-03-25T00:09:12;20.97;;;10.13;;
11346;SDS011;5728;42.722;23.258;2023-03-25T00:11:39;20.37;;;10.60;;
11346;SDS011;5728;42.722;23.258;2023-03-25T00:14:05;15.73;;;10.07;;
11346;SDS011;5728;42.722;23.258;2023-03-25T00:16:32;16.07;;;10.10;;
11346;SDS011;5728;42.722;23.258;2023-03-25T00:18:59;13.57;;;9.60;;
11346;SDS011;5728;42.722;23.258;2023-03-25T00:21:26;18.53;;;10.20;;
11346;SDS011;5728;42.722;23.258;2023-03-25T00:23:53;14.73;;;10.00;;
11346;SDS011;5728;42.722;23.258;2023-03-25T00:26:22;16.70;;;10.47;;
11346;SDS011;5728;42.722;23.258;2023-03-25T00:28:48;17.67;;;10.00;;
11346;SDS011;5728;42.722;23.258;2023-03-25T00:31:15;17.00;;;9.53;;
11346;SDS011;5728;42.722;23.258;2023-03-25T00:33:42;14.80;;;9.83;;
11346;SDS011;5728;42.722;23.258;2023-03-25T00:36:09;11.87;;;8.97;;
11346;SDS011;5728;42.722;23.258;2023-03-25T00:38:38;16.03;;;10.63;;
11346;SDS011;5728;42.722;23.258;2023-03-25T00:41:08;13.90;;;9.60;;
11346;SDS011;5728;42.722;23.258;2023-03-25T00:43:40;19.37;;;9.77;;
11346;SDS011;5728;42.722;23.258;2023-03-25T00:46:06;12.17;;;9.67;;
11346;SDS011;5728;42.722;23.258;2023-03-25T00:48:33;16.77;;;9.70;;
11346;SDS011;5728;42.722;23.258;2023-03-25T00:51:00;16.63;;;11.43;;
11346;SDS011;5728;42.722;23.258;2023-03-25T00:53:31;15.87;;;9.97;;
11346;SDS011;5728;42.722;23.258;2023-03-25T00:55:58;17.83;;;10.10;;
11346;SDS011;5728;42.722;23.258;2023-03-25T00:58:25;20.40;;;10.83;;
11346;SDS011;5728;42.722;23.258;2023-03-25T01:00:53;14.73;;;10.20;;
11346;SDS011;5728;42.722;23.258;2023-03-25T01:03:20;17.50;;;10.33;;
11346;SDS011;5728;42.722;23.258;2023-03-25T01:05:47;15.80;;;11.00;;
11346;SDS011;5728;42.722;23.258;2023-03-25T01:08:14;14.73;;;9.87;;
11346;SDS011;5728;42.722;23.258;2023-03-25T01:10:41;12.63;;;9.10;;
11346;SDS011;5728;42.722;23.258;2023-03-25T01:13:08;16.93;;;9.73;;
11346;SDS011;5728;42.722;23.258;2023-03-25T01:15:35;22.80;;;9.60;;
11346;SDS011;5728;42.722;23.258;2023-03-25T01:18:07;13.67;;;9.50;;
11346;SDS011;5728;42.722;23.258;2023-03-25T01:20:33;15.20;;;9.90;;
11346;SDS011;5728;42.722;23.258;2023-03-25T01:23:00;16.63;;;9.93;;
11346;SDS011;5728;42.722;23.258;2023-03-25T01:25:27;13.57;;;9.13;;
11346;SDS011;5728;42.722;23.258;2023-03-25T01:27:54;18.73;;;10.23;;
11346;SDS011;5728;42.722;23.258;2023-03-25T01:30:20;13.43;;;9.63;;
11346;SDS011;5728;42.722;23.258;2023-03-25T01:32:47;13.60;;;9.43;;
11346;SDS011;5728;42.722;23.258;2023-03-25T01:35:15;16.10;;;9.90;;
11346;SDS011;5728;42.722;23.258;2023-03-25T01:37:42;14.73;;;9.13;;
11346;SDS011;5728;42.722;23.258;2023-03-25T01:40:11;14.87;;;10.10;;
11346;SDS011;5728;42.722;23.258;2023-03-25T01:42:43;19.13;;;9.90;;
11346;SDS011;5728;42.722;23.258;2023-03-25T01:45:20;13.07;;;9.17;;
11346;SDS011;5728;42.722;23.258;2023-03-25T01:47:54;14.40;;;9.37;;
11346;SDS011;5728;42.722;23.258;2023-03-25T01:50:28;15.07;;;9.80;;
11346;SDS011;5728;42.722;23.258;2023-03-25T01:52:56;13.37;;;9.33;;
11346;SDS011;5728;42.722;23.258;2023-03-25T01:55:26;13.60;;;9.23;;
11346;SDS011;5728;42.722;23.258;2023-03-25T01:57:55;12.10;;;8.73;;
11346;SDS011;5728;42.722;23.258;2023-03-25T02:00:23;16.07;;;10.30;;
11346;SDS011;5728;42.722;23.258;2023-03-25T02:02:51;12.87;;;9.47;;
11346;SDS011;5728;42.722;23.258;2023-03-25T02:05:23;12.10;;;9.23;;
11346;SDS011;5728;42.722;23.258;2023-03-25T02:07:56;16.17;;;10.03;;
11346;SDS011;5728;42.722;23.258;2023-03-25T02:10:24;14.13;;;9.00;;
11346;SDS011;5728;42.722;23.258;2023-03-25T02:12:52;16.70;;;8.93;;
11346;SDS011;5728;42.722;23.258;2023-03-25T02:15:19;13.07;;;8.83;;
11346;SDS011;5728;42.722;23.258;2023-03-25T02:17:58;13.30;;;9.23;;
11346;SDS011;5728;42.722;23.258;2023-03-25T02:20:48;15.43;;;10.50;;
11346;SDS011;5728;42.722;23.258;2023-03-25T02:23:47;12.77;;;9.10;;
11346;SDS011;5728;42.722;23.258;2023-03-25T02:26:52;16.20;;;9.67;;
11346;SDS011;5728;42.722;23.258;2023-03-25T02:29:43;13.30;;;8.80;;
11346;SDS011;5728;42.722;23.258;2023-03-25T02:32:23;14.80;;;9.10;;
11346;SDS011;5728;42.722;23.258;2023-03-25T02:35:13;15.90;;;8.67;;
11346;SDS011;5728;42.722;23.258;2023-03-25T02:38:02;14.37;;;8.67;;
11346;SDS011;5728;42.722;23.258;2023-03-25T02:40:44;11.90;;;8.23;;
11346;SDS011;5728;42.722;23.258;2023-03-25T02:43:14;12.10;;;8.63;;
11346;SDS011;5728;42.722;23.258;2023-03-25T02:45:46;16.00;;;9.30;;
11346;SDS011;5728;42.722;23.258;2023-03-25T02:48:18;13.03;;;9.10;;
11346;SDS011;5728;42.722;23.258;2023-03-25T02:50:49;13.07;;;9.10;;
11346;SDS011;5728;42.722;23.258;2023-03-25T02:53:20;14.80;;;9.13;;
11346;SDS011;5728;42.722;23.258;2023-03-25T02:55:51;15.00;;;9.30;;
11346;SDS011;5728;42.722;23.258;2023-03-25T02:58:21;16.03;;;10.17;;
11346;SDS011;5728;42.722;23.258;2023-03-25T03:00:49;15.10;;;9.67;;
11346;SDS011;5728;42.722;23.258;2023-03-25T03:03:17;15.53;;;9.67;;
11346;SDS011;5728;42.722;23.258;2023-03-25T03:05:44;16.33;;;9.80;;
11346;SDS011;5728;42.722;23.258;2023-03-25T03:11:18;14.40;;;8.50;;
11346;SDS011;5728;42.722;23.258;2023-03-25T03:13:55;13.23;;;8.73;;
11346;SDS011;5728;42.722;23.258;2023-03-25T03:16:31;12.70;;;9.07;;
11346;SDS011;5728;42.722;23.258;2023-03-25T03:19:06;12.73;;;8.90;;
11346;SDS011;5728;42.722;23.258;2023-03-25T03:21:46;16.17;;;9.40;;
11346;SDS011;5728;42.722;23.258;2023-03-25T03:24:20;18.23;;;9.43;;
11346;SDS011;5728;42.722;23.258;2023-03-25T03:26:55;12.10;;;8.37;;
11346;SDS011;5728;42.722;23.258;2023-03-25T03:29:25;16.70;;;9.73;;
11346;SDS011;5728;42.722;23.258;2023-03-25T03:31:56;18.27;;;10.90;;
11346;SDS011;5728;42.722;23.258;2023-03-25T03:34:26;19.83;;;11.53;;
11346;SDS011;5728;42.722;23.258;2023-03-25T03:36:58;23.13;;;13.93;;
11346;SDS011;5728;42.722;23.258;2023-03-25T03:39:29;24.90;;;13.67;;
11346;SDS011;5728;42.722;23.258;2023-03-25T03:42:00;20.60;;;13.27;;
11346;SDS011;5728;42.722;23.258;2023-03-25T03:44:32;25.10;;;13.50;;
11346;SDS011;5728;42.722;23.258;2023-03-25T03:47:03;23.10;;;13.23;;
11346;SDS011;5728;42.722;23.258;2023-03-25T03:49:35;22.50;;;14.23;;
11346;SDS011;5728;42.722;23.258;2023-03-25T03:52:05;23.37;;;15.20;;
11346;SDS011;5728;42.722;23.258;2023-03-25T03:54:36;20.83;;;13.27;;
11346;SDS011;5728;42.722;23.258;2023-03-25T03:57:10;18.13;;;11.40;;
11346;SDS011;5728;42.722;23.258;2023-03-25T03:59:41;17.87;;;11.47;;
11346;SDS011;5728;42.722;23.258;2023-03-25T04:02:17;20.23;;;12.17;;
11346;SDS011;5728;42.722;23.258;2023-03-25T04:04:51;23.47;;;11.53;;
11346;SDS011;5728;42.722;23.258;2023-03-25T04:07:19;18.67;;;10.50;;
11346;SDS011;5728;42.722;23.258;2023-03-25T04:09:52;17.87;;;10.03;;
11346;SDS011;5728;42.722;23.258;2023-03-25T04:12:28;18.53;;;10.90;;
11346;SDS011;5728;42.722;23.258;2023-03-25T04:14:59;15.90;;;9.50;;
11346;SDS011;5728;42.722;23.258;2023-03-25T04:17:26;22.30;;;10.00;;
11346;SDS011;5728;42.722;23.258;2023-03-25T04:19:54;20.10;;;10.83;;
11346;SDS011;5728;42.722;23.258;2023-03-25T04:22:21;16.83;;;10.80;;
11346;SDS011;5728;42.722;23.258;2023-03-25T04:24:48;20.57;;;9.97;;
11346;SDS011;5728;42.722;23.258;2023-03-25T04:27:16;13.63;;;10.17;;
11346;SDS011;5728;42.722;23.258;2023-03-25T04:29:44;18.67;;;10.23;;
11346;SDS011;5728;42.722;23.258;2023-03-25T04:32:12;15.60;;;9.87;;
11346;SDS011;5728;42.722;23.258;2023-03-25T04:34:39;16.13;;;11.27;;
11346;SDS011;5728;42.722;23.258;2023-03-25T04:37:06;26.10;;;10.90;;
11346;SDS011;5728;42.722;23.258;2023-03-25T04:39:33;15.60;;;9.00;;
11346;SDS011;5728;42.722;23.258;2023-03-25T04:42:00;16.17;;;9.63;;
11346;SDS011;5728;42.722;23.258;2023-03-25T04:44:27;25.17;;;10.60;;
11346;SDS011;5728;42.722;23.258;2023-03-25T04:46:59;19.40;;;9.57;;
11346;SDS011;5728;42.722;23.258;2023-03-25T04:49:27;26.97;;;11.10;;
11346;SDS011;5728;42.722;23.258;2023-03-25T04:51:53;27.30;;;10.97;;
11346;SDS011;5728;42.722;23.258;2023-03-25T04:54:21;18.40;;;9.73;;
11346;SDS011;5728;42.722;23.258;2023-03-25T04:56:48;17.07;;;10.10;;
11346;SDS011;5728;42.722;23.258;2023-03-25T04:59:16;18.03;;;9.40;;
11346;SDS011;5728;42.722;23.258;2023-03-25T05:01:43;14.30;;;11.10;;
11346;SDS011;5728;42.722;23.258;2023-03-25T05:04:13;13.37;;;9.57;;
11346;SDS011;5728;42.722;23.258;2023-03-25T05:06:42;23.80;;;11.17;;
11346;SDS011;5728;42.722;23.258;2023-03-25T05:35:37;20.00;;;12.77;;
11346;SDS011;5728;42.722;23.258;2023-03-25T05:38:04;18.27;;;11.60;;
11346;SDS011;5728;42.722;23.258;2023-03-25T05:40:33;13.97;;;10.47;;
11346;SDS011;5728;42.722;23.258;2023-03-25T05:43:02;26.63;;;11.10;;
11346;SDS011;5728;42.722;23.258;2023-03-25T05:45:30;26.40;;;11.43;;
11346;SDS011;5728;42.722;23.258;2023-03-25T05:48:00;18.50;;;10.07;;
11346;SDS011;5728;42.722;23.258;2023-03-25T05:50:29;17.63;;;11.43;;
11346;SDS011;5728;42.722;23.258;2023-03-25T05:52:58;17.97;;;11.00;;
11346;SDS011;5728;42.722;23.258;2023-03-25T05:55:25;20.00;;;11.17;;
11346;SDS011;5728;42.722;23.258;2023-03-25T05:57:52;22.50;;;11.70;;
11346;SDS011;5728;42.722;23.258;2023-03-25T06:00:19;19.27;;;11.03;;
11346;SDS011;5728;42.722;23.258;2023-03-25T06:02:47;23.50;;;11.93;;
11346;SDS011;5728;42.722;23.258;2023-03-25T06:05:14;26.63;;;11.67;;
11346;SDS011;5728;42.722;23.258;2023-03-25T06:07:42;14.63;;;11.00;;
11346;SDS011;5728;42.722;23.258;2023-03-25T06:10:13;21.67;;;12.33;;
11346;SDS011;5728;42.722;23.258;2023-03-25T06:12:41;24.87;;;13.13;;
11346;SDS011;5728;42.722;23.258;2023-03-25T06:15:10;30.03;;;14.87;;
11346;SDS011;5728;42.722;23.258;2023-03-25T06:17:41;28.03;;;14.70;;
11346;SDS011;5728;42.722;23.258;2023-03-25T06:20:10;33.40;;;15.10;;
11346;SDS011;5728;42.722;23.258;2023-03-25T06:22:41;23.70;;;13.97;;
11346;SDS011;5728;42.722;23.258;2023-03-25T06:25:09;25.93;;;15.97;;
11346;SDS011;5728;42.722;23.258;2023-03-25T06:27:39;29.57;;;16.53;;
11346;SDS011;5728;42.722;23.258;2023-03-25T06:30:06;28.77;;;16.80;;
11346;SDS011;5728;42.722;23.258;2023-03-25T06:32:34;31.43;;;15.07;;
11346;SDS011;5728;42.722;23.258;2023-03-25T06:35:02;39.23;;;15.33;;
11346;SDS011;5728;42.722;23.258;2023-03-25T06:37:29;25.80;;;16.97;;
11346;SDS011;5728;42.722;23.258;2023-03-25T06:39:55;27.03;;;15.13;;
11346;SDS011;5728;42.722;23.258;2023-03-25T06:42:24;28.40;;;14.90;;
11346;SDS011;5728;42.722;23.258;2023-03-25T06:44:52;23.08;;;13.90;;
11346;SDS011;5728;42.722;23.258;2023-03-25T06:47:19;26.27;;;13.02;;
11346;SDS011;5728;42.722;23.258;2023-03-25T06:49:46;23.65;;;13.10;;
11346;SDS011;5728;42.722;23.258;2023-03-25T06:52:13;25.77;;;12.75;;
11346;SDS011;5728;42.722;23.258;2023-03-25T06:54:40;23.30;;;12.60;;
11346;SDS011;5728;42.722;23.258;2023-03-25T06:57:07;27.88;;;12.43;;
11346;SDS011;5728;42.722;23.258;2023-03-25T06:59:34;23.65;;;13.02;;
11346;SDS011;5728;42.722;23.258;2023-03-25T07:18:11;19.73;;;10.30;;
11346;SDS011;5728;42.722;23.258;2023-03-25T07:20:38;28.02;;;12.15;;
11346;SDS011;5728;42.722;23.258;2023-03-25T07:23:07;17.30;;;11.00;;
11346;SDS011;5728;42.722;23.258;2023-03-25T07:25:34;20.58;;;11.50;;
11346;SDS011;5728;42.722;23.258;2023-03-25T07:28:02;22.52;;;12.10;;
11346;SDS011;5728;42.722;23.258;2023-03-25T07:30:29;22.73;;;12.98;;
11346;SDS011;5728;42.722;23.258;2023-03-25T07:32:55;19.75;;;11.70;;
11346;SDS011;5728;42.722;23.258;2023-03-25T07:35:24;16.17;;;10.95;;
11346;SDS011;5728;42.722;23.258;2023-03-25T07:37:50;21.42;;;11.63;;
11346;SDS011;5728;42.722;23.258;2023-03-25T07:40:17;21.55;;;12.27;;
11346;SDS011;5728;42.722;23.258;2023-03-25T07:42:44;16.80;;;11.95;;
11346;SDS011;5728;42.722;23.258;2023-03-25T07:45:11;19.13;;;10.63;;
11346;SDS011;5728;42.722;23.258;2023-03-25T07:47:38;27.30;;;12.45;;
11346;SDS011;5728;42.722;23.258;2023-03-25T07:50:05;19.35;;;11.93;;
11346;SDS011;5728;42.722;23.258;2023-03-25T07:52:34;22.25;;;12.27;;
11346;SDS011;5728;42.722;23.258;2023-03-25T07:55:01;24.15;;;12.52;;
11346;SDS011;5728;42.722;23.258;2023-03-25T07:57:28;21.42;;;12.77;;
11346;SDS011;5728;42.722;23.258;2023-03-25T07:59:54;15.15;;;11.18;;
11346;SDS011;5728;42.722;23.258;2023-03-25T08:02:21;23.83;;;12.32;;
11346;SDS011;5728;42.722;23.258;2023-03-25T08:04:48;21.15;;;11.90;;
11346;SDS011;5728;42.722;23.258;2023-03-25T08:07:18;21.83;;;11.68;;
11346;SDS011;5728;42.722;23.258;2023-03-25T08:09:47;30.88;;;11.50;;
11346;SDS011;5728;42.722;23.258;2023-03-25T08:12:13;18.08;;;10.55;;
11346;SDS011;5728;42.722;23.258;2023-03-25T08:14:40;15.77;;;10.85;;
11346;SDS011;5728;42.722;23.258;2023-03-25T08:17:07;24.98;;;13.77;;
11346;SDS011;5728;42.722;23.258;2023-03-25T08:19:34;19.40;;;14.32;;
11346;SDS011;5728;42.722;23.258;2023-03-25T08:22:01;22.13;;;13.52;;
11346;SDS011;5728;42.722;23.258;2023-03-25T08:24:28;22.42;;;14.20;;
11346;SDS011;5728;42.722;23.258;2023-03-25T08:26:58;28.55;;;12.88;;
11346;SDS011;5728;42.722;23.258;2023-03-25T08:29:25;25.60;;;13.45;;
11346;SDS011;5728;42.722;23.258;2023-03-25T08:31:53;22.52;;;13.55;;
11346;SDS011;5728;42.722;23.258;2023-03-25T08:34:21;20.52;;;13.77;;
11346;SDS011;5728;42.722;23.258;2023-03-25T08:36:48;21.10;;;13.23;;
11346;SDS011;5728;42.722;23.258;2023-03-25T08:39:15;18.23;;;13.43;;
11346;SDS011;5728;42.722;23.258;2023-03-25T08:41:42;28.63;;;12.48;;
11346;SDS011;5728;42.722;23.258;2023-03-25T08:44:11;23.52;;;13.38;;
11346;SDS011;5728;42.722;23.258;2023-03-25T08:46:38;17.92;;;12.13;;
11346;SDS011;5728;42.722;23.258;2023-03-25T08:49:05;16.85;;;12.15;;
11346;SDS011;5728;42.722;23.258;2023-03-25T08:51:31;22.48;;;11.75;;
11346;SDS011;5728;42.722;23.258;2023-03-25T08:53:58;25.02;;;13.23;;
11346;SDS011;5728;42.722;23.258;2023-03-25T08:56:26;22.10;;;11.88;;
11346;SDS011;5728;42.722;23.258;2023-03-25T08:58:52;22.10;;;12.05;;
11346;SDS011;5728;42.722;23.258;2023-03-25T09:01:21;21.77;;;11.55;;
11346;SDS011;5728;42.722;23.258;2023-03-25T09:03:48;28.48;;;11.15;;
11346;SDS011;5728;42.722;23.258;2023-03-25T09:06:15;14.45;;;9.55;;
11346;SDS011;5728;42.722;23.258;2023-03-25T09:08:42;17.48;;;9.82;;
11346;SDS011;5728;42.722;23.258;2023-03-25T09:11:09;21.83;;;9.82;;
11346;SDS011;5728;42.722;23.258;2023-03-25T09:13:36;15.23;;;9.82;;
11346;SDS011;5728;42.722;23.258;2023-03-25T09:16:03;20.90;;;8.88;;
11346;SDS011;5728;42.722;23.258;2023-03-25T09:18:31;20.20;;;9.88;;
11346;SDS011;5728;42.722;23.258;2023-03-25T09:21:00;13.68;;;9.15;;
11346;SDS011;5728;42.722;23.258;2023-03-25T09:23:28;11.68;;;7.47;;
11346;SDS011;5728;42.722;23.258;2023-03-25T09:25:54;16.83;;;8.57;;
11346;SDS011;5728;42.722;23.258;2023-03-25T09:28:24;18.13;;;9.32;;
11346;SDS011;5728;42.722;23.258;2023-03-25T09:30:51;12.13;;;8.90;;
11346;SDS011;5728;42.722;23.258;2023-03-25T09:33:19;12.50;;;7.07;;
11346;SDS011;5728;42.722;23.258;2023-03-25T09:35:48;9.57;;;7.00;;
11346;SDS011;5728;42.722;23.258;2023-03-25T09:38:15;15.80;;;7.13;;
11346;SDS011;5728;42.722;23.258;2023-03-25T09:40:42;18.13;;;7.25;;
11346;SDS011;5728;42.722;23.258;2023-03-25T09:43:16;10.05;;;5.70;;
11346;SDS011;5728;42.722;23.258;2023-03-25T09:45:54;14.18;;;6.63;;
11346;SDS011;5728;42.722;23.258;2023-03-25T09:48:23;9.40;;;5.82;;
11346;SDS011;5728;42.722;23.258;2023-03-25T09:50:58;7.75;;;4.68;;
11346;SDS011;5728;42.722;23.258;2023-03-25T09:53:30;8.93;;;4.88;;
11346;SDS011;5728;42.722;23.258;2023-03-25T09:56:02;7.60;;;4.45;;
11346;SDS011;5728;42.722;23.258;2023-03-25T09:58:35;7.95;;;4.13;;
11346;SDS011;5728;42.722;23.258;2023-03-25T10:04:00;4.13;;;3.38;;
11346;SDS011;5728;42.722;23.258;2023-03-25T10:06:41;7.00;;;3.83;;
11346;SDS011;5728;42.722;23.258;2023-03-25T10:09:23;6.22;;;3.78;;
11346;SDS011;5728;42.722;23.258;2023-03-25T10:12:00;4.80;;;3.58;;
11346;SDS011;5728;42.722;23.258;2023-03-25T10:14:36;4.90;;;3.63;;
11346;SDS011;5728;42.722;23.258;2023-03-25T10:17:18;5.13;;;3.25;;
11346;SDS011;5728;42.722;23.258;2023-03-25T10:19:59;5.15;;;3.65;;
11346;SDS011;5728;42.722;23.258;2023-03-25T10:22:34;6.50;;;3.63;;
11346;SDS011;5728;42.722;23.258;2023-03-25T10:25:11;4.43;;;3.40;;
11346;SDS011;5728;42.722;23.258;2023-03-25T10:27:44;3.72;;;2.60;;
11346;SDS011;5728;42.722;23.258;2023-03-25T10:30:14;5.85;;;3.97;;
11346;SDS011;5728;42.722;23.258;2023-03-25T10:32:44;4.97;;;3.83;;
11346;SDS011;5728;42.722;23.258;2023-03-25T10:35:14;6.47;;;3.60;;
11346;SDS011;5728;42.722;23.258;2023-03-25T10:37:45;6.20;;;3.72;;
11346;SDS011;5728;42.722;23.258;2023-03-25T10:40:17;7.05;;;3.90;;
11346;SDS011;5728;42.722;23.258;2023-03-25T10:42:52;5.30;;;3.35;;
11346;SDS011;5728;42.722;23.258;2023-03-25T10:45:25;5.97;;;3.58;;
11346;SDS011;5728;42.722;23.258;2023-03-25T10:47:53;5.70;;;3.40;;
11346;SDS011;5728;42.722;23.258;2023-03-25T10:50:27;5.63;;;3.78;;
11346;SDS011;5728;42.722;23.258;2023-03-25T10:52:56;4.88;;;3.45;;
11346;SDS011;5728;42.722;23.258;2023-03-25T10:55:23;4.78;;;3.65;;
11346;SDS011;5728;42.722;23.258;2023-03-25T10:57:54;6.45;;;3.58;;
11346;SDS011;5728;42.722;23.258;2023-03-25T11:00:22;7.72;;;3.78;;
11346;SDS011;5728;42.722;23.258;2023-03-25T11:02:50;4.78;;;3.55;;
11346;SDS011;5728;42.722;23.258;2023-03-25T11:05:19;4.20;;;3.25;;
11346;SDS011;5728;42.722;23.258;2023-03-25T11:07:49;5.03;;;3.47;;
11346;SDS011;5728;42.722;23.258;2023-03-25T11:10:21;5.45;;;2.80;;
11346;SDS011;5728;42.722;23.258;2023-03-25T11:12:49;4.38;;;3.00;;
11346;SDS011;5728;42.722;23.258;2023-03-25T11:15:19;6.00;;;3.05;;
11346;SDS011;5728;42.722;23.258;2023-03-25T11:17:54;5.10;;;3.08;;
11346;SDS011;5728;42.722;23.258;2023-03-25T11:20:28;4.93;;;3.30;;
11346;SDS011;5728;42.722;23.258;2023-03-25T11:23:02;5.25;;;2.97;;
11346;SDS011;5728;42.722;23.258;2023-03-25T11:25:35;2.90;;;2.60;;
11346;SDS011;5728;42.722;23.258;2023-03-25T11:28:08;6.78;;;3.17;;
11346;SDS011;5728;42.722;23.258;2023-03-25T11:33:41;3.15;;;2.85;;
11346;SDS011;5728;42.722;23.258;2023-03-25T11:36:11;4.47;;;3.20;;
11346;SDS011;5728;42.722;23.258;2023-03-25T11:38:59;4.55;;;3.20;;
11346;SDS011;5728;42.722;23.258;2023-03-25T11:41:30;3.45;;;3.13;;
11346;SDS011;5728;42.722;23.258;2023-03-25T11:44:00;4.50;;;2.95;;
11346;SDS011;5728;42.722;23.258;2023-03-25T11:46:28;3.97;;;2.95;;
11346;SDS011;5728;42.722;23.258;2023-03-25T11:48:56;3.80;;;3.25;;
11346;SDS011;5728;42.722;23.258;2023-03-25T11:51:24;3.60;;;2.88;;
11346;SDS011;5728;42.722;23.258;2023-03-25T11:53:56;4.72;;;3.03;;
11346;SDS011;5728;42.722;23.258;2023-03-25T11:56:26;5.07;;;3.35;;
11346;SDS011;5728;42.722;23.258;2023-03-25T11:58:59;5.25;;;3.20;;
11346;SDS011;5728;42.722;23.258;2023-03-25T12:01:27;5.60;;;3.17;;
11346;SDS011;5728;42.722;23.258;2023-03-25T12:04:06;5.60;;;2.80;;
11346;SDS011;5728;42.722;23.258;2023-03-25T12:06:45;8.45;;;3.15;;
11346;SDS011;5728;42.722;23.258;2023-03-25T12:09:18;10.18;;;3.50;;
11346;SDS011;5728;42.722;23.258;2023-03-25T12:11:46;3.20;;;2.53;;
11346;SDS011;5728;42.722;23.258;2023-03-25T12:14:33;6.18;;;2.90;;
11346;SDS011;5728;42.722;23.258;2023-03-25T12:17:12;4.03;;;3.05;;
11346;SDS011;5728;42.722;23.258;2023-03-25T12:19:51;4.90;;;3.20;;
11346;SDS011;5728;42.722;23.258;2023-03-25T12:22:30;3.22;;;2.60;;
11346;SDS011;5728;42.722;23.258;2023-03-25T12:25:11;12.88;;;3.08;;
11346;SDS011;5728;42.722;23.258;2023-03-25T12:27:57;4.60;;;2.67;;
11346;SDS011;5728;42.722;23.258;2023-03-25T12:30:43;4.55;;;2.95;;
11346;SDS011;5728;42.722;23.258;2023-03-25T12:33:23;3.20;;;2.65;;
11346;SDS011;5728;42.722;23.258;2023-03-25T12:36:02;2.88;;;2.50;;
11346;SDS011;5728;42.722;23.258;2023-03-25T12:38:43;4.38;;;2.60;;
11346;SDS011;5728;42.722;23.258;2023-03-25T12:41:26;4.05;;;3.15;;
11346;SDS011;5728;42.722;23.258;2023-03-25T12:44:01;6.85;;;2.88;;
11346;SDS011;5728;42.722;23.258;2023-03-25T12:46:40;8.13;;;3.13;;
11346;SDS011;5728;42.722;23.258;2023-03-25T12:49:22;5.53;;;3.13;;
11346;SDS011;5728;42.722;23.258;2023-03-25T12:52:00;3.88;;;3.03;;
11346;SDS011;5728;42.722;23.258;2023-03-25T12:54:38;14.68;;;3.72;;
11346;SDS011;5728;42.722;23.258;2023-03-25T12:57:18;4.85;;;2.70;;
11346;SDS011;5728;42.722;23.258;2023-03-25T13:00:10;11.40;;;3.10;;
11346;SDS011;5728;42.722;23.258;2023-03-25T13:02:55;5.38;;;2.80;;
11346;SDS011;5728;42.722;23.258;2023-03-25T13:05:36;4.10;;;2.40;;
11346;SDS011;5728;42.722;23.258;2023-03-25T13:08:08;6.82;;;3.13;;
11346;SDS011;5728;42.722;23.258;2023-03-25T13:10:40;4.50;;;3.53;;
11346;SDS011;5728;42.722;23.258;2023-03-25T13:13:09;5.05;;;3.17;;
11346;SDS011;5728;42.722;23.258;2023-03-25T13:15:40;5.07;;;2.80;;
11346;SDS011;5728;42.722;23.258;2023-03-25T13:18:12;9.95;;;3.15;;
11346;SDS011;5728;42.722;23.258;2023-03-25T13:20:45;4.40;;;3.00;;
11346;SDS011;5728;42.722;23.258;2023-03-25T13:23:16;9.65;;;3.40;;
11346;SDS011;5728;42.722;23.258;2023-03-25T13:25:48;3.20;;;2.90;;
11346;SDS011;5728;42.722;23.258;2023-03-25T13:28:20;4.70;;;2.83;;
11346;SDS011;5728;42.722;23.258;2023-03-25T13:30:49;3.35;;;2.35;;
11346;SDS011;5728;42.722;23.258;2023-03-25T13:33:22;9.50;;;3.65;;
11346;SDS011;5728;42.722;23.258;2023-03-25T13:35:51;7.18;;;3.00;;
11346;SDS011;5728;42.722;23.258;2023-03-25T13:38:23;6.85;;;2.80;;
11346;SDS011;5728;42.722;23.258;2023-03-25T13:40:53;13.13;;;2.97;;
11346;SDS011;5728;42.722;23.258;2023-03-25T13:43:34;6.90;;;2.95;;
11346;SDS011;5728;42.722;23.258;2023-03-25T13:46:07;7.28;;;3.58;;
11346;SDS011;5728;42.722;23.258;2023-03-25T13:48:40;7.82;;;3.55;;
11346;SDS011;5728;42.722;23.258;2023-03-25T13:51:10;6.63;;;3.17;;
11346;SDS011;5728;42.722;23.258;2023-03-25T13:53:39;5.32;;;2.58;;
11346;SDS011;5728;42.722;23.258;2023-03-25T13:59:27;3.95;;;2.78;;
11346;SDS011;5728;42.722;23.258;2023-03-25T14:05:26;3.33;;;2.67;;
11346;SDS011;5728;42.722;23.258;2023-03-25T14:11:15;4.38;;;2.95;;
11346;SDS011;5728;42.722;23.258;2023-03-25T14:13:50;4.35;;;3.38;;
11346;SDS011;5728;42.722;23.258;2023-03-25T14:16:20;4.18;;;3.10;;
11346;SDS011;5728;42.722;23.258;2023-03-25T14:18:52;3.33;;;2.60;;
11346;SDS011;5728;42.722;23.258;2023-03-25T14:21:33;4.78;;;3.22;;
11346;SDS011;5728;42.722;23.258;2023-03-25T14:24:09;5.93;;;2.95;;
11346;SDS011;5728;42.722;23.258;2023-03-25T14:26:41;3.92;;;2.83;;
11346;SDS011;5728;42.722;23.258;2023-03-25T14:29:17;5.30;;;3.03;;
11346;SDS011;5728;42.722;23.258;2023-03-25T14:31:59;5.15;;;3.10;;
11346;SDS011;5728;42.722;23.258;2023-03-25T14:34:28;4.93;;;3.17;;
11346;SDS011;5728;42.722;23.258;2023-03-25T14:39:56;6.20;;;3.33;;
11346;SDS011;5728;42.722;23.258;2023-03-25T14:42:42;4.75;;;4.25;;
11346;SDS011;5728;42.722;23.258;2023-03-25T14:45:39;7.63;;;4.00;;
11346;SDS011;5728;42.722;23.258;2023-03-25T14:48:33;7.40;;;4.03;;
11346;SDS011;5728;42.722;23.258;2023-03-25T14:51:14;5.03;;;3.88;;
11346;SDS011;5728;42.722;23.258;2023-03-25T14:53:49;7.75;;;4.30;;
11346;SDS011;5728;42.722;23.258;2023-03-25T14:56:19;6.72;;;3.85;;
11346;SDS011;5728;42.722;23.258;2023-03-25T14:58:51;4.95;;;4.07;;
11346;SDS011;5728;42.722;23.258;2023-03-25T15:01:20;4.38;;;3.97;;
11346;SDS011;5728;42.722;23.258;2023-03-25T15:06:47;5.68;;;4.13;;
11346;SDS011;5728;42.722;23.258;2023-03-25T15:09:16;5.65;;;3.55;;
11346;SDS011;5728;42.722;23.258;2023-03-25T15:11:50;5.93;;;4.68;;
11346;SDS011;5728;42.722;23.258;2023-03-25T15:14:21;8.05;;;4.70;;
11346;SDS011;5728;42.722;23.258;2023-03-25T15:16:56;8.13;;;5.70;;
11346;SDS011;5728;42.722;23.258;2023-03-25T15:19:25;9.25;;;5.93;;
11346;SDS011;5728;42.722;23.258;2023-03-25T15:24:55;7.32;;;4.40;;
11346;SDS011;5728;42.722;23.258;2023-03-25T15:30:35;6.35;;;5.03;;
11346;SDS011;5728;42.722;23.258;2023-03-25T15:33:20;11.05;;;5.45;;
11346;SDS011;5728;42.722;23.258;2023-03-25T15:36:09;11.73;;;6.95;;
11346;SDS011;5728;42.722;23.258;2023-03-25T15:41:58;12.20;;;7.07;;
11346;SDS011;5728;42.722;23.258;2023-03-25T15:44:46;10.20;;;5.53;;
11346;SDS011;5728;42.722;23.258;2023-03-25T15:56:05;10.15;;;7.47;;
11346;SDS011;5728;42.722;23.258;2023-03-25T15:58:39;10.52;;;6.88;;
11346;SDS011;5728;42.722;23.258;2023-03-25T16:01:13;15.30;;;9.13;;
11346;SDS011;5728;42.722;23.258;2023-03-25T16:03:45;16.75;;;9.60;;
11346;SDS011;5728;42.722;23.258;2023-03-25T16:06:19;14.30;;;9.77;;
11346;SDS011;5728;42.722;23.258;2023-03-25T16:08:46;16.23;;;10.50;;
11346;SDS011;5728;42.722;23.258;2023-03-25T16:11:22;14.75;;;9.65;;
11346;SDS011;5728;42.722;23.258;2023-03-25T16:14:01;16.60;;;9.27;;
11346;SDS011;5728;42.722;23.258;2023-03-25T16:16:30;17.88;;;9.65;;
11346;SDS011;5728;42.722;23.258;2023-03-25T16:19:00;26.80;;;8.63;;
11346;SDS011;5728;42.722;23.258;2023-03-25T16:21:28;14.48;;;9.77;;
11346;SDS011;5728;42.722;23.258;2023-03-25T16:23:55;16.38;;;8.90;;